sensor_id;sensor_type;location;lat;lon;timestamp;pressure;altitude;pressure_sealevel;temperature
31528;BMP280;10206;48.012;10.030;2024-01-06T00:02:06;93487.63;;;8.41
31528;BMP280;10206;48.012;10.030;2024-01-06T00:04:32;93486.34;;;8.42
31528;BMP280;10206;48.012;10.030;2024-01-06T00:06:59;93489.06;;;8.42
31528;BMP280;10206;48.012;10.030;2024-01-06T00:09:25;93477.13;;;8.47
31528;BMP280;10206;48.012;10.030;2024-01-06T00:11:51;93475.97;;;8.50
31528;BMP280;10206;48.012;10.030;2024-01-06T00:14:17;93469.38;;;8.53
31528;BMP280;10206;48.012;10.030;2024-01-06T00:16:43;93472.94;;;8.35
31528;BMP280;10206;48.012;10.030;2024-01-06T00:19:09;93469.16;;;8.40
31528;BMP280;10206;48.012;10.030;2024-01-06T00:21:35;93469.31;;;8.42
31528;BMP280;10206;48.012;10.030;2024-01-06T00:24:01;93470.09;;;8.33
31528;BMP280;10206;48.012;10.030;2024-01-06T00:26:27;93465.66;;;8.27
31528;BMP280;10206;48.012;10.030;2024-01-06T00:28:53;93468.81;;;8.55
31528;BMP280;10206;48.012;10.030;2024-01-06T00:31:20;93472.88;;;8.44
31528;BMP280;10206;48.012;10.030;2024-01-06T00:33:46;93472.34;;;8.36
31528;BMP280;10206;48.012;10.030;2024-01-06T00:36:12;93472.03;;;8.42
31528;BMP280;10206;48.012;10.030;2024-01-06T00:38:38;93473.00;;;8.46
31528;BMP280;10206;48.012;10.030;2024-01-06T00:41:04;93472.75;;;8.42
31528;BMP280;10206;48.012;10.030;2024-01-06T00:43:31;93471.03;;;8.37
31528;BMP280;10206;48.012;10.030;2024-01-06T00:45:57;93470.28;;;8.46
31528;BMP280;10206;48.012;10.030;2024-01-06T00:48:23;93480.50;;;8.36
31528;BMP280;10206;48.012;10.030;2024-01-06T00:50:49;93488.25;;;8.30
31528;BMP280;10206;48.012;10.030;2024-01-06T00:53:15;93480.09;;;8.30
31528;BMP280;10206;48.012;10.030;2024-01-06T00:55:41;93490.72;;;8.47
31528;BMP280;10206;48.012;10.030;2024-01-06T00:58:07;93478.69;;;8.50
31528;BMP280;10206;48.012;10.030;2024-01-06T01:00:34;93485.28;;;8.47
31528;BMP280;10206;48.012;10.030;2024-01-06T01:03:00;93490.34;;;8.41
31528;BMP280;10206;48.012;10.030;2024-01-06T01:05:26;93487.41;;;8.27
31528;BMP280;10206;48.012;10.030;2024-01-06T01:08:00;93487.41;;;8.27
31528;BMP280;10206;48.012;10.030;2024-01-06T01:10:26;93493.53;;;8.28
31528;BMP280;10206;48.012;10.030;2024-01-06T01:12:52;93491.78;;;8.11
31528;BMP280;10206;48.012;10.030;2024-01-06T01:15:18;93496.78;;;8.15
31528;BMP280;10206;48.012;10.030;2024-01-06T01:17:44;93502.63;;;8.42
31528;BMP280;10206;48.012;10.030;2024-01-06T01:20:10;93504.44;;;8.49
31528;BMP280;10206;48.012;10.030;2024-01-06T01:22:37;93502.19;;;8.46
31528;BMP280;10206;48.012;10.030;2024-01-06T01:25:03;93505.59;;;8.25
31528;BMP280;10206;48.012;10.030;2024-01-06T01:27:33;93499.09;;;8.30
31528;BMP280;10206;48.012;10.030;2024-01-06T01:30:00;93505.78;;;8.39
31528;BMP280;10206;48.012;10.030;2024-01-06T01:32:26;93509.13;;;8.27
31528;BMP280;10206;48.012;10.030;2024-01-06T01:34:52;93508.34;;;8.15
31528;BMP280;10206;48.012;10.030;2024-01-06T01:37:18;93512.34;;;8.14
31528;BMP280;10206;48.012;10.030;2024-01-06T01:39:44;93511.59;;;8.23
31528;BMP280;10206;48.012;10.030;2024-01-06T01:42:10;93510.44;;;8.17
31528;BMP280;10206;48.012;10.030;2024-01-06T01:44:36;93522.88;;;8.20
31528;BMP280;10206;48.012;10.030;2024-01-06T01:47:05;93529.91;;;8.23
31528;BMP280;10206;48.012;10.030;2024-01-06T01:49:31;93522.66;;;8.37
31528;BMP280;10206;48.012;10.030;2024-01-06T01:51:58;93524.09;;;8.38
31528;BMP280;10206;48.012;10.030;2024-01-06T01:54:25;93528.53;;;8.03
31528;BMP280;10206;48.012;10.030;2024-01-06T01:56:52;93526.28;;;8.30
31528;BMP280;10206;48.012;10.030;2024-01-06T01:59:19;93526.56;;;8.34
31528;BMP280;10206;48.012;10.030;2024-01-06T02:01:46;93532.66;;;8.44
31528;BMP280;10206;48.012;10.030;2024-01-06T02:04:13;93531.94;;;8.44
31528;BMP280;10206;48.012;10.030;2024-01-06T02:06:39;93533.16;;;8.52
31528;BMP280;10206;48.012;10.030;2024-01-06T02:09:05;93530.31;;;8.50
31528;BMP280;10206;48.012;10.030;2024-01-06T02:11:31;93532.19;;;8.48
31528;BMP280;10206;48.012;10.030;2024-01-06T02:13:58;93532.91;;;8.48
31528;BMP280;10206;48.012;10.030;2024-01-06T02:16:24;93531.31;;;7.84
31528;BMP280;10206;48.012;10.030;2024-01-06T02:18:50;93541.91;;;7.70
31528;BMP280;10206;48.012;10.030;2024-01-06T02:21:17;93549.22;;;7.48
31528;BMP280;10206;48.012;10.030;2024-01-06T02:23:47;93549.34;;;7.60
31528;BMP280;10206;48.012;10.030;2024-01-06T02:26:14;93553.75;;;6.88
31528;BMP280;10206;48.012;10.030;2024-01-06T02:28:41;93557.91;;;7.18
31528;BMP280;10206;48.012;10.030;2024-01-06T02:31:07;93562.91;;;7.41
31528;BMP280;10206;48.012;10.030;2024-01-06T02:33:33;93563.88;;;6.88
31528;BMP280;10206;48.012;10.030;2024-01-06T02:35:59;93570.47;;;7.33
31528;BMP280;10206;48.012;10.030;2024-01-06T02:38:25;93581.38;;;6.68
31528;BMP280;10206;48.012;10.030;2024-01-06T02:40:51;93580.31;;;6.90
31528;BMP280;10206;48.012;10.030;2024-01-06T02:43:17;93569.94;;;6.69
31528;BMP280;10206;48.012;10.030;2024-01-06T02:45:43;93574.81;;;6.61
31528;BMP280;10206;48.012;10.030;2024-01-06T02:48:09;93587.78;;;6.63
31528;BMP280;10206;48.012;10.030;2024-01-06T02:50:35;93580.72;;;6.96
31528;BMP280;10206;48.012;10.030;2024-01-06T02:53:01;93580.22;;;6.61
31528;BMP280;10206;48.012;10.030;2024-01-06T02:55:27;93583.22;;;6.75
31528;BMP280;10206;48.012;10.030;2024-01-06T02:57:53;93579.59;;;6.89
31528;BMP280;10206;48.012;10.030;2024-01-06T03:00:20;93578.56;;;6.85
31528;BMP280;10206;48.012;10.030;2024-01-06T03:02:46;93580.13;;;6.88
31528;BMP280;10206;48.012;10.030;2024-01-06T03:05:12;93577.97;;;6.77
31528;BMP280;10206;48.012;10.030;2024-01-06T03:07:38;93585.53;;;6.78
31528;BMP280;10206;48.012;10.030;2024-01-06T03:10:04;93585.41;;;6.86
31528;BMP280;10206;48.012;10.030;2024-01-06T03:12:31;93592.63;;;6.64
31528;BMP280;10206;48.012;10.030;2024-01-06T03:14:57;93587.41;;;6.40
31528;BMP280;10206;48.012;10.030;2024-01-06T03:17:23;93591.44;;;6.48
31528;BMP280;10206;48.012;10.030;2024-01-06T03:19:49;93584.69;;;6.76
31528;BMP280;10206;48.012;10.030;2024-01-06T03:22:15;93586.22;;;6.69
31528;BMP280;10206;48.012;10.030;2024-01-06T03:24:41;93587.25;;;6.74
31528;BMP280;10206;48.012;10.030;2024-01-06T03:27:07;93588.16;;;6.50
31528;BMP280;10206;48.012;10.030;2024-01-06T03:29:34;93592.63;;;6.64
31528;BMP280;10206;48.012;10.030;2024-01-06T03:32:00;93596.34;;;6.32
31528;BMP280;10206;48.012;10.030;2024-01-06T03:34:26;93598.38;;;6.42
31528;BMP280;10206;48.012;10.030;2024-01-06T03:36:53;93592.81;;;6.85
31528;BMP280;10206;48.012;10.030;2024-01-06T03:39:19;93599.81;;;6.88
31528;BMP280;10206;48.012;10.030;2024-01-06T03:41:45;93601.13;;;6.87
31528;BMP280;10206;48.012;10.030;2024-01-06T03:44:11;93601.97;;;6.90
31528;BMP280;10206;48.012;10.030;2024-01-06T03:46:38;93594.09;;;6.84
31528;BMP280;10206;48.012;10.030;2024-01-06T03:49:04;93588.13;;;6.86
31528;BMP280;10206;48.012;10.030;2024-01-06T03:51:30;93583.53;;;6.79
31528;BMP280;10206;48.012;10.030;2024-01-06T03:53:56;93587.72;;;6.89
31528;BMP280;10206;48.012;10.030;2024-01-06T03:56:22;93592.28;;;7.06
31528;BMP280;10206;48.012;10.030;2024-01-06T03:58:48;93588.44;;;7.09
31528;BMP280;10206;48.012;10.030;2024-01-06T04:01:15;93583.75;;;7.00
31528;BMP280;10206;48.012;10.030;2024-01-06T04:03:41;93586.88;;;7.06
31528;BMP280;10206;48.012;10.030;2024-01-06T04:06:07;93585.44;;;7.05
31528;BMP280;10206;48.012;10.030;2024-01-06T04:08:35;93596.88;;;7.13
31528;BMP280;10206;48.012;10.030;2024-01-06T04:11:01;93600.56;;;7.08
31528;BMP280;10206;48.012;10.030;2024-01-06T04:13:27;93602.88;;;7.12
31528;BMP280;10206;48.012;10.030;2024-01-06T04:15:53;93604.13;;;7.11
31528;BMP280;10206;48.012;10.030;2024-01-06T04:18:20;93612.28;;;7.11
31528;BMP280;10206;48.012;10.030;2024-01-06T04:20:46;93607.44;;;7.09
31528;BMP280;10206;48.012;10.030;2024-01-06T04:23:12;93602.72;;;7.00
31528;BMP280;10206;48.012;10.030;2024-01-06T04:25:38;93612.81;;;6.90
31528;BMP280;10206;48.012;10.030;2024-01-06T04:28:04;93612.19;;;6.82
31528;BMP280;10206;48.012;10.030;2024-01-06T04:30:31;93618.34;;;6.92
31528;BMP280;10206;48.012;10.030;2024-01-06T04:32:57;93622.66;;;6.95
31528;BMP280;10206;48.012;10.030;2024-01-06T04:35:23;93615.78;;;6.84
31528;BMP280;10206;48.012;10.030;2024-01-06T04:37:49;93621.94;;;6.94
31528;BMP280;10206;48.012;10.030;2024-01-06T04:40:15;93629.56;;;7.15
31528;BMP280;10206;48.012;10.030;2024-01-06T04:42:42;93622.09;;;6.97
31528;BMP280;10206;48.012;10.030;2024-01-06T04:45:08;93626.22;;;6.97
31528;BMP280;10206;48.012;10.030;2024-01-06T04:47:34;93632.34;;;6.98
31528;BMP280;10206;48.012;10.030;2024-01-06T04:50:00;93633.81;;;6.99
31528;BMP280;10206;48.012;10.030;2024-01-06T04:52:27;93629.25;;;7.02
31528;BMP280;10206;48.012;10.030;2024-01-06T04:54:53;93627.69;;;7.08
31528;BMP280;10206;48.012;10.030;2024-01-06T04:57:19;93630.81;;;6.68
31528;BMP280;10206;48.012;10.030;2024-01-06T04:59:46;93644.44;;;6.78
31528;BMP280;10206;48.012;10.030;2024-01-06T05:02:12;93642.75;;;6.92
31528;BMP280;10206;48.012;10.030;2024-01-06T05:04:38;93653.84;;;6.77
31528;BMP280;10206;48.012;10.030;2024-01-06T05:07:04;93656.75;;;6.98
31528;BMP280;10206;48.012;10.030;2024-01-06T05:09:31;93659.25;;;6.77
31528;BMP280;10206;48.012;10.030;2024-01-06T05:11:57;93658.72;;;6.52
31528;BMP280;10206;48.012;10.030;2024-01-06T05:14:23;93671.91;;;6.65
31528;BMP280;10206;48.012;10.030;2024-01-06T05:16:49;93665.09;;;6.73
31528;BMP280;10206;48.012;10.030;2024-01-06T05:19:15;93671.41;;;6.59
31528;BMP280;10206;48.012;10.030;2024-01-06T05:21:46;93671.84;;;6.55
31528;BMP280;10206;48.012;10.030;2024-01-06T05:24:13;93680.63;;;6.46
31528;BMP280;10206;48.012;10.030;2024-01-06T05:26:39;93668.66;;;6.49
31528;BMP280;10206;48.012;10.030;2024-01-06T05:29:05;93676.69;;;6.57
31528;BMP280;10206;48.012;10.030;2024-01-06T05:31:32;93683.16;;;6.61
31528;BMP280;10206;48.012;10.030;2024-01-06T05:33:58;93686.97;;;6.58
31528;BMP280;10206;48.012;10.030;2024-01-06T05:36:24;93685.53;;;6.57
31528;BMP280;10206;48.012;10.030;2024-01-06T05:38:51;93686.94;;;6.49
31528;BMP280;10206;48.012;10.030;2024-01-06T05:41:17;93685.91;;;6.44
31528;BMP280;10206;48.012;10.030;2024-01-06T05:43:43;93683.63;;;6.41
31528;BMP280;10206;48.012;10.030;2024-01-06T05:46:09;93679.22;;;6.45
31528;BMP280;10206;48.012;10.030;2024-01-06T05:48:36;93675.16;;;6.63
31528;BMP280;10206;48.012;10.030;2024-01-06T05:51:04;93674.63;;;6.65
31528;BMP280;10206;48.012;10.030;2024-01-06T05:53:31;93680.63;;;6.46
31528;BMP280;10206;48.012;10.030;2024-01-06T05:55:57;93687.69;;;6.32
31528;BMP280;10206;48.012;10.030;2024-01-06T05:58:24;93698.91;;;6.28
31528;BMP280;10206;48.012;10.030;2024-01-06T06:00:50;93690.28;;;6.40
31528;BMP280;10206;48.012;10.030;2024-01-06T06:03:16;93693.00;;;6.40
31528;BMP280;10206;48.012;10.030;2024-01-06T06:05:42;93692.53;;;6.33
31528;BMP280;10206;48.012;10.030;2024-01-06T06:08:09;93692.38;;;6.31
31528;BMP280;10206;48.012;10.030;2024-01-06T06:10:35;93706.94;;;6.36
31528;BMP280;10206;48.012;10.030;2024-01-06T06:13:17;93716.38;;;6.18
31528;BMP280;10206;48.012;10.030;2024-01-06T06:15:43;93719.13;;;6.45
31528;BMP280;10206;48.012;10.030;2024-01-06T06:18:09;93720.84;;;6.50
31528;BMP280;10206;48.012;10.030;2024-01-06T06:20:35;93717.84;;;6.46
31528;BMP280;10206;48.012;10.030;2024-01-06T06:23:01;93717.38;;;6.40
31528;BMP280;10206;48.012;10.030;2024-01-06T06:25:28;93720.56;;;6.46
31528;BMP280;10206;48.012;10.030;2024-01-06T06:27:54;93717.94;;;6.38
31528;BMP280;10206;48.012;10.030;2024-01-06T06:30:20;93719.59;;;6.33
31528;BMP280;10206;48.012;10.030;2024-01-06T06:32:46;93722.50;;;6.18
31528;BMP280;10206;48.012;10.030;2024-01-06T06:35:13;93714.84;;;6.24
31528;BMP280;10206;48.012;10.030;2024-01-06T06:37:39;93709.94;;;6.13
31528;BMP280;10206;48.012;10.030;2024-01-06T06:40:06;93715.81;;;6.19
31528;BMP280;10206;48.012;10.030;2024-01-06T06:42:32;93724.03;;;6.12
31528;BMP280;10206;48.012;10.030;2024-01-06T06:44:58;93715.19;;;6.11
31528;BMP280;10206;48.012;10.030;2024-01-06T06:47:24;93712.09;;;5.98
31528;BMP280;10206;48.012;10.030;2024-01-06T06:49:50;93726.34;;;5.98
31528;BMP280;10206;48.012;10.030;2024-01-06T06:52:16;93716.00;;;5.87
31528;BMP280;10206;48.012;10.030;2024-01-06T06:54:43;93727.50;;;5.88
31528;BMP280;10206;48.012;10.030;2024-01-06T06:57:09;93736.91;;;5.87
31528;BMP280;10206;48.012;10.030;2024-01-06T06:59:35;93732.72;;;5.93
31528;BMP280;10206;48.012;10.030;2024-01-06T07:02:01;93736.19;;;5.86
31528;BMP280;10206;48.012;10.030;2024-01-06T07:04:27;93743.28;;;5.99
31528;BMP280;10206;48.012;10.030;2024-01-06T07:06:53;93748.06;;;5.91
31528;BMP280;10206;48.012;10.030;2024-01-06T07:09:19;93744.97;;;6.11
31528;BMP280;10206;48.012;10.030;2024-01-06T07:11:49;93754.75;;;6.07
31528;BMP280;10206;48.012;10.030;2024-01-06T07:14:15;93756.25;;;6.00
31528;BMP280;10206;48.012;10.030;2024-01-06T07:16:41;93759.84;;;6.03
31528;BMP280;10206;48.012;10.030;2024-01-06T07:19:07;93768.13;;;6.05
31528;BMP280;10206;48.012;10.030;2024-01-06T07:21:33;93758.25;;;6.00
31528;BMP280;10206;48.012;10.030;2024-01-06T07:24:00;93761.94;;;6.12
31528;BMP280;10206;48.012;10.030;2024-01-06T07:26:27;93762.47;;;6.10
31528;BMP280;10206;48.012;10.030;2024-01-06T07:28:53;93767.38;;;6.04
31528;BMP280;10206;48.012;10.030;2024-01-06T07:31:19;93768.06;;;6.12
31528;BMP280;10206;48.012;10.030;2024-01-06T07:33:45;93771.31;;;6.11
31528;BMP280;10206;48.012;10.030;2024-01-06T07:36:11;93772.81;;;6.21
31528;BMP280;10206;48.012;10.030;2024-01-06T07:38:37;93769.78;;;6.17
31528;BMP280;10206;48.012;10.030;2024-01-06T07:41:04;93782.78;;;6.19
31528;BMP280;10206;48.012;10.030;2024-01-06T07:43:33;93784.53;;;6.24
31528;BMP280;10206;48.012;10.030;2024-01-06T07:45:59;93785.97;;;6.25
31528;BMP280;10206;48.012;10.030;2024-01-06T07:48:25;93789.00;;;6.12
31528;BMP280;10206;48.012;10.030;2024-01-06T07:50:52;93787.13;;;6.14
31528;BMP280;10206;48.012;10.030;2024-01-06T07:53:18;93782.50;;;6.42
31528;BMP280;10206;48.012;10.030;2024-01-06T07:55:44;93780.69;;;6.44
31528;BMP280;10206;48.012;10.030;2024-01-06T07:58:10;93778.88;;;6.29
31528;BMP280;10206;48.012;10.030;2024-01-06T08:00:37;93781.91;;;6.16
31528;BMP280;10206;48.012;10.030;2024-01-06T08:03:04;93791.28;;;6.15
31528;BMP280;10206;48.012;10.030;2024-01-06T08:05:31;93786.19;;;6.19
31528;BMP280;10206;48.012;10.030;2024-01-06T08:07:58;93795.25;;;6.31
31528;BMP280;10206;48.012;10.030;2024-01-06T08:10:24;93795.75;;;6.38
31528;BMP280;10206;48.012;10.030;2024-01-06T08:12:50;93793.34;;;6.42
31528;BMP280;10206;48.012;10.030;2024-01-06T08:15:16;93787.84;;;6.49
31528;BMP280;10206;48.012;10.030;2024-01-06T08:17:43;93793.22;;;6.22
31528;BMP280;10206;48.012;10.030;2024-01-06T08:20:09;93797.91;;;6.39
31528;BMP280;10206;48.012;10.030;2024-01-06T08:22:35;93801.22;;;6.47
31528;BMP280;10206;48.012;10.030;2024-01-06T08:25:01;93804.25;;;6.34
31528;BMP280;10206;48.012;10.030;2024-01-06T08:27:28;93807.97;;;6.56
31528;BMP280;10206;48.012;10.030;2024-01-06T08:29:54;93800.34;;;6.62
31528;BMP280;10206;48.012;10.030;2024-01-06T08:32:20;93805.78;;;6.62
31528;BMP280;10206;48.012;10.030;2024-01-06T08:34:46;93809.41;;;6.74
31528;BMP280;10206;48.012;10.030;2024-01-06T08:37:13;93809.41;;;6.74
31528;BMP280;10206;48.012;10.030;2024-01-06T08:39:40;93810.00;;;6.82
31528;BMP280;10206;48.012;10.030;2024-01-06T08:42:07;93811.25;;;6.54
31528;BMP280;10206;48.012;10.030;2024-01-06T08:44:33;93809.16;;;6.79
31528;BMP280;10206;48.012;10.030;2024-01-06T08:46:59;93814.09;;;6.73
31528;BMP280;10206;48.012;10.030;2024-01-06T08:49:25;93819.84;;;6.77
31528;BMP280;10206;48.012;10.030;2024-01-06T08:51:51;93817.03;;;6.85
31528;BMP280;10206;48.012;10.030;2024-01-06T08:54:17;93816.28;;;6.84
31528;BMP280;10206;48.012;10.030;2024-01-06T08:56:43;93816.63;;;6.88
31528;BMP280;10206;48.012;10.030;2024-01-06T08:59:09;93823.97;;;6.78
31528;BMP280;10206;48.012;10.030;2024-01-06T09:01:35;93821.50;;;6.90
31528;BMP280;10206;48.012;10.030;2024-01-06T09:04:03;93818.13;;;6.82
31528;BMP280;10206;48.012;10.030;2024-01-06T09:06:29;93821.50;;;6.90
31528;BMP280;10206;48.012;10.030;2024-01-06T09:08:55;93819.78;;;6.94
31528;BMP280;10206;48.012;10.030;2024-01-06T09:11:21;93822.56;;;6.77
31528;BMP280;10206;48.012;10.030;2024-01-06T09:13:47;93827.63;;;6.90
31528;BMP280;10206;48.012;10.030;2024-01-06T09:16:13;93827.63;;;6.90
31528;BMP280;10206;48.012;10.030;2024-01-06T09:18:40;93831.91;;;6.93
31528;BMP280;10206;48.012;10.030;2024-01-06T09:21:06;93829.75;;;6.92
31528;BMP280;10206;48.012;10.030;2024-01-06T09:23:33;93833.97;;;7.03
31528;BMP280;10206;48.012;10.030;2024-01-06T09:25:59;93828.75;;;7.14
31528;BMP280;10206;48.012;10.030;2024-01-06T09:28:25;93822.56;;;7.04
31528;BMP280;10206;48.012;10.030;2024-01-06T09:30:51;93833.44;;;7.14
31528;BMP280;10206;48.012;10.030;2024-01-06T09:33:18;93832.00;;;7.03
31528;BMP280;10206;48.012;10.030;2024-01-06T09:35:44;93843.25;;;7.26
31528;BMP280;10206;48.012;10.030;2024-01-06T09:38:11;93832.03;;;7.13
31528;BMP280;10206;48.012;10.030;2024-01-06T09:40:42;93832.81;;;7.23
31528;BMP280;10206;48.012;10.030;2024-01-06T09:43:12;93828.28;;;7.08
31528;BMP280;10206;48.012;10.030;2024-01-06T09:45:39;93833.41;;;7.04
31528;BMP280;10206;48.012;10.030;2024-01-06T09:48:12;93838.00;;;7.38
31528;BMP280;10206;48.012;10.030;2024-01-06T09:50:43;93836.31;;;7.42
31528;BMP280;10206;48.012;10.030;2024-01-06T09:53:13;93835.75;;;7.17
31528;BMP280;10206;48.012;10.030;2024-01-06T09:55:40;93836.81;;;7.31
31528;BMP280;10206;48.012;10.030;2024-01-06T09:58:07;93832.75;;;7.49
31528;BMP280;10206;48.012;10.030;2024-01-06T10:00:34;93839.84;;;7.09
31528;BMP280;10206;48.012;10.030;2024-01-06T10:03:00;93839.69;;;7.33
31528;BMP280;10206;48.012;10.030;2024-01-06T10:05:26;93847.19;;;7.52
31528;BMP280;10206;48.012;10.030;2024-01-06T10:07:52;93846.22;;;7.30
31528;BMP280;10206;48.012;10.030;2024-01-06T10:10:18;93845.88;;;7.17
31528;BMP280;10206;48.012;10.030;2024-01-06T10:12:45;93847.53;;;7.29
31528;BMP280;10206;48.012;10.030;2024-01-06T10:15:12;93860.31;;;7.19
31528;BMP280;10206;48.012;10.030;2024-01-06T10:17:42;93851.94;;;7.25
31528;BMP280;10206;48.012;10.030;2024-01-06T10:20:12;93850.25;;;7.29
31528;BMP280;10206;48.012;10.030;2024-01-06T10:22:40;93853.44;;;7.18
31528;BMP280;10206;48.012;10.030;2024-01-06T10:25:07;93851.06;;;7.22
31528;BMP280;10206;48.012;10.030;2024-01-06T10:27:36;93849.75;;;7.23
31528;BMP280;10206;48.012;10.030;2024-01-06T10:30:03;93845.63;;;7.22
31528;BMP280;10206;48.012;10.030;2024-01-06T10:32:33;93846.25;;;7.40
31528;BMP280;10206;48.012;10.030;2024-01-06T10:35:00;93845.06;;;7.50
31528;BMP280;10206;48.012;10.030;2024-01-06T10:37:30;93839.50;;;7.48
31528;BMP280;10206;48.012;10.030;2024-01-06T10:40:13;93843.91;;;7.53
31528;BMP280;10206;48.012;10.030;2024-01-06T10:42:40;93847.31;;;7.44
31528;BMP280;10206;48.012;10.030;2024-01-06T10:45:09;93847.84;;;7.79
31528;BMP280;10206;48.012;10.030;2024-01-06T10:47:36;93840.56;;;7.82
31528;BMP280;10206;48.012;10.030;2024-01-06T10:50:03;93839.72;;;7.89
31528;BMP280;10206;48.012;10.030;2024-01-06T10:52:30;93846.59;;;7.90
31528;BMP280;10206;48.012;10.030;2024-01-06T10:54:57;93848.06;;;8.10
31528;BMP280;10206;48.012;10.030;2024-01-06T10:57:24;93851.94;;;8.16
31528;BMP280;10206;48.012;10.030;2024-01-06T10:59:51;93847.75;;;8.06
31528;BMP280;10206;48.012;10.030;2024-01-06T11:02:18;93849.28;;;7.80
31528;BMP280;10206;48.012;10.030;2024-01-06T11:04:46;93845.75;;;7.87
31528;BMP280;10206;48.012;10.030;2024-01-06T11:07:19;93847.09;;;8.15
31528;BMP280;10206;48.012;10.030;2024-01-06T11:10:06;93842.66;;;8.10
31528;BMP280;10206;48.012;10.030;2024-01-06T11:12:33;93839.78;;;8.17
31528;BMP280;10206;48.012;10.030;2024-01-06T11:14:59;93838.47;;;8.09
31528;BMP280;10206;48.012;10.030;2024-01-06T11:17:54;93828.44;;;7.83
31528;BMP280;10206;48.012;10.030;2024-01-06T11:20:22;93822.38;;;7.65
31528;BMP280;10206;48.012;10.030;2024-01-06T11:22:49;93822.72;;;7.79
31528;BMP280;10206;48.012;10.030;2024-01-06T11:25:17;93819.06;;;8.12
31528;BMP280;10206;48.012;10.030;2024-01-06T11:27:45;93825.06;;;8.20
31528;BMP280;10206;48.012;10.030;2024-01-06T11:30:29;93814.91;;;8.40
31528;BMP280;10206;48.012;10.030;2024-01-06T11:32:58;93810.63;;;8.37
31528;BMP280;10206;48.012;10.030;2024-01-06T11:35:27;93811.31;;;8.47
31528;BMP280;10206;48.012;10.030;2024-01-06T11:37:55;93811.22;;;8.45
31528;BMP280;10206;48.012;10.030;2024-01-06T11:45:25;93804.03;;;8.31
31528;BMP280;10206;48.012;10.030;2024-01-06T11:47:55;93800.78;;;8.03
31528;BMP280;10206;48.012;10.030;2024-01-06T11:50:22;93802.19;;;8.23
31528;BMP280;10206;48.012;10.030;2024-01-06T11:52:49;93799.19;;;8.48
31528;BMP280;10206;48.012;10.030;2024-01-06T11:55:18;93800.47;;;8.47
31528;BMP280;10206;48.012;10.030;2024-01-06T11:57:45;93797.31;;;8.51
31528;BMP280;10206;48.012;10.030;2024-01-06T12:00:12;93794.59;;;8.60
31528;BMP280;10206;48.012;10.030;2024-01-06T12:02:40;93790.19;;;8.46
31528;BMP280;10206;48.012;10.030;2024-01-06T12:05:12;93790.75;;;8.44
31528;BMP280;10206;48.012;10.030;2024-01-06T12:07:41;93786.88;;;8.57
31528;BMP280;10206;48.012;10.030;2024-01-06T12:10:08;93786.75;;;8.55
31528;BMP280;10206;48.012;10.030;2024-01-06T12:12:35;93785.44;;;8.27
31528;BMP280;10206;48.012;10.030;2024-01-06T12:15:01;93789.19;;;8.41
31528;BMP280;10206;48.012;10.030;2024-01-06T12:17:31;93786.16;;;8.27
31528;BMP280;10206;48.012;10.030;2024-01-06T12:19:57;93787.03;;;8.20
31528;BMP280;10206;48.012;10.030;2024-01-06T12:22:23;93785.75;;;8.31
31528;BMP280;10206;48.012;10.030;2024-01-06T12:24:50;93786.88;;;8.47
31528;BMP280;10206;48.012;10.030;2024-01-06T12:27:17;93784.72;;;7.98
31528;BMP280;10206;48.012;10.030;2024-01-06T12:29:44;93776.03;;;8.28
31528;BMP280;10206;48.012;10.030;2024-01-06T12:32:11;93784.56;;;7.77
31528;BMP280;10206;48.012;10.030;2024-01-06T12:34:39;93781.13;;;7.76
31528;BMP280;10206;48.012;10.030;2024-01-06T12:37:06;93781.44;;;7.90
31528;BMP280;10206;48.012;10.030;2024-01-06T12:39:33;93778.03;;;7.99
31528;BMP280;10206;48.012;10.030;2024-01-06T12:42:01;93788.59;;;8.14
31528;BMP280;10206;48.012;10.030;2024-01-06T12:44:27;93780.53;;;7.58
31528;BMP280;10206;48.012;10.030;2024-01-06T12:46:54;93775.44;;;7.91
31528;BMP280;10206;48.012;10.030;2024-01-06T12:49:20;93776.88;;;8.02
31528;BMP280;10206;48.012;10.030;2024-01-06T12:51:47;93777.16;;;8.06
31528;BMP280;10206;48.012;10.030;2024-01-06T12:54:13;93782.47;;;8.04
31528;BMP280;10206;48.012;10.030;2024-01-06T12:56:39;93776.47;;;8.05
31528;BMP280;10206;48.012;10.030;2024-01-06T12:59:06;93779.69;;;7.75
31528;BMP280;10206;48.012;10.030;2024-01-06T13:01:32;93774.56;;;7.89
31528;BMP280;10206;48.012;10.030;2024-01-06T13:03:58;93777.31;;;7.43
31528;BMP280;10206;48.012;10.030;2024-01-06T13:06:26;93786.69;;;7.78
31528;BMP280;10206;48.012;10.030;2024-01-06T13:08:52;93786.69;;;7.78
31528;BMP280;10206;48.012;10.030;2024-01-06T13:11:19;93787.38;;;7.59
31528;BMP280;10206;48.012;10.030;2024-01-06T13:13:45;93790.00;;;7.77
31528;BMP280;10206;48.012;10.030;2024-01-06T13:16:11;93786.28;;;7.82
31528;BMP280;10206;48.012;10.030;2024-01-06T13:18:37;93786.47;;;7.84
31528;BMP280;10206;48.012;10.030;2024-01-06T13:21:04;93785.44;;;7.89
31528;BMP280;10206;48.012;10.030;2024-01-06T13:23:30;93788.50;;;7.56
31528;BMP280;10206;48.012;10.030;2024-01-06T13:25:56;93783.44;;;7.80
31528;BMP280;10206;48.012;10.030;2024-01-06T13:28:23;93792.59;;;7.84
31528;BMP280;10206;48.012;10.030;2024-01-06T13:30:50;93793.75;;;7.91
31528;BMP280;10206;48.012;10.030;2024-01-06T13:33:16;93789.72;;;7.92
31528;BMP280;10206;48.012;10.030;2024-01-06T13:35:42;93794.31;;;7.89
31528;BMP280;10206;48.012;10.030;2024-01-06T13:38:11;93797.31;;;7.93
31528;BMP280;10206;48.012;10.030;2024-01-06T13:40:37;93793.28;;;7.85
31528;BMP280;10206;48.012;10.030;2024-01-06T13:43:04;93789.88;;;7.84
31528;BMP280;10206;48.012;10.030;2024-01-06T13:45:32;93796.00;;;7.85
31528;BMP280;10206;48.012;10.030;2024-01-06T13:47:59;93801.16;;;7.81
31528;BMP280;10206;48.012;10.030;2024-01-06T13:50:25;93801.16;;;7.81
31528;BMP280;10206;48.012;10.030;2024-01-06T13:52:51;93794.72;;;7.86
31528;BMP280;10206;48.012;10.030;2024-01-06T13:55:17;93798.69;;;7.85
31528;BMP280;10206;48.012;10.030;2024-01-06T13:57:43;93804.28;;;7.77
31528;BMP280;10206;48.012;10.030;2024-01-06T14:00:10;93804.44;;;7.89
31528;BMP280;10206;48.012;10.030;2024-01-06T14:02:37;93799.88;;;7.82
31528;BMP280;10206;48.012;10.030;2024-01-06T14:05:04;93803.41;;;7.75
31528;BMP280;10206;48.012;10.030;2024-01-06T14:07:34;93800.84;;;7.77
31528;BMP280;10206;48.012;10.030;2024-01-06T14:10:00;93804.69;;;7.74
31528;BMP280;10206;48.012;10.030;2024-01-06T14:12:30;93807.69;;;7.58